createdAt,value
2018-04-29T00:02:08.100Z,65.28
2018-04-29T00:04:35.517Z,64.55
2018-04-29T00:07:02.928Z,64.09
2018-04-29T00:09:30.331Z,63.82
2018-04-29T00:11:57.757Z,63.70
2018-04-29T00:14:25.148Z,63.51
2018-04-29T00:16:52.574Z,63.52
2018-04-29T00:19:19.970Z,63.36
2018-04-29T00:21:47.368Z,63.37
2018-04-29T00:24:14.780Z,63.50
2018-04-29T00:26:42.177Z,63.56
2018-04-29T00:29:09.592Z,63.44
2018-04-29T00:31:37.004Z,63.83
2018-04-29T00:34:04.416Z,63.48
2018-04-29T00:36:31.817Z,63.67
2018-04-29T00:38:59.216Z,63.41
2018-04-29T00:41:26.631Z,63.53
2018-04-29T00:43:54.033Z,65.03
2018-04-29T00:46:21.450Z,63.59
2018-04-29T00:48:48.856Z,63.97
2018-04-29T00:51:16.537Z,63.98
2018-04-29T00:53:43.935Z,64.22
2018-04-29T00:56:11.333Z,63.87
2018-04-29T00:58:38.744Z,63.87
2018-04-29T01:01:06.153Z,65.98
2018-04-29T01:03:33.569Z,65.52
2018-04-29T01:06:01.029Z,65.01
2018-04-29T01:08:28.379Z,65.37
2018-04-29T01:10:55.800Z,65.18
2018-04-29T01:13:23.205Z,65.25
2018-04-29T01:15:50.626Z,65.74
2018-04-29T01:18:18.045Z,65.24
2018-04-29T01:20:45.468Z,65.56
2018-04-29T01:23:12.923Z,65.63
2018-04-29T01:25:40.299Z,65.73
2018-04-29T01:28:07.675Z,65.95
2018-04-29T01:30:35.076Z,65.82
2018-04-29T01:33:02.491Z,65.88
2018-04-29T01:35:29.888Z,65.93
2018-04-29T01:37:57.289Z,65.89
2018-04-29T01:40:24.706Z,65.92
2018-04-29T01:42:52.116Z,65.95
2018-04-29T01:45:19.511Z,65.76
2018-04-29T01:47:46.944Z,65.63
2018-04-29T01:50:14.349Z,65.62
2018-04-29T01:52:41.755Z,67.17
2018-04-29T01:55:09.167Z,66.77
2018-04-29T01:57:36.580Z,67.13
2018-04-29T02:00:03.976Z,66.81
2018-04-29T02:02:31.397Z,67.20
2018-04-29T02:04:58.793Z,67.44
2018-04-29T02:07:26.212Z,67.46
2018-04-29T02:09:53.608Z,67.75
2018-04-29T02:12:21.024Z,68.25
2018-04-29T02:14:48.432Z,67.98
2018-04-29T02:17:15.846Z,68.38
2018-04-29T02:19:43.239Z,69.39
2018-04-29T02:22:10.664Z,69.10
2018-04-29T02:24:38.065Z,69.63
2018-04-29T02:27:05.775Z,70.51
2018-04-29T02:29:33.167Z,70.77
2018-04-29T02:32:00.569Z,70.44
2018-04-29T02:34:27.986Z,70.36
2018-04-29T02:36:55.385Z,71.18
2018-04-29T02:39:22.793Z,72.03
2018-04-29T02:41:50.201Z,71.37
2018-04-29T02:44:17.614Z,71.61
2018-04-29T02:46:45.026Z,71.87
2018-04-29T02:49:12.435Z,71.84
2018-04-29T02:51:39.861Z,72.61
2018-04-29T02:54:07.280Z,72.81
2018-04-29T02:56:34.684Z,73.78
2018-04-29T02:59:02.093Z,74.95
2018-04-29T03:01:29.699Z,73.72
2018-04-29T03:03:57.092Z,74.07
2018-04-29T03:06:25.072Z,73.45
2018-04-29T03:08:52.498Z,73.45
2018-04-29T03:11:19.914Z,73.53
2018-04-29T03:13:47.335Z,74.00
2018-04-29T03:16:14.752Z,74.99
2018-04-29T03:18:42.543Z,73.45
2018-04-29T03:21:09.960Z,74.14
2018-04-29T03:23:37.365Z,74.27
2018-04-29T03:26:04.784Z,74.50
2018-04-29T03:28:32.215Z,75.52
2018-04-29T03:30:59.659Z,75.67
2018-04-29T03:33:27.077Z,75.37
2018-04-29T03:35:54.830Z,75.21
2018-04-29T03:38:22.236Z,75.84
2018-04-29T03:40:49.645Z,75.34
2018-04-29T03:43:17.065Z,75.30
2018-04-29T03:45:44.484Z,75.22
2018-04-29T03:48:11.912Z,76.83
2018-04-29T03:50:39.324Z,77.46
2018-04-29T03:53:06.736Z,76.59
2018-04-29T03:55:34.157Z,76.72
2018-04-29T03:58:13.441Z,76.18
2018-04-29T04:00:52.592Z,76.42
2018-04-29T04:06:39.466Z,77.08
2018-04-29T04:09:06.875Z,76.71
2018-04-29T04:11:34.302Z,76.58
2018-04-29T04:14:01.715Z,76.72
2018-04-29T04:16:29.130Z,76.73
2018-04-29T04:18:56.543Z,77.37
2018-04-29T04:21:23.960Z,77.67
2018-04-29T04:23:51.383Z,77.51
2018-04-29T04:26:18.805Z,77.32
2018-04-29T04:28:46.232Z,77.19
2018-04-29T04:31:13.636Z,76.81
2018-04-29T04:33:41.051Z,76.23
2018-04-29T04:36:08.455Z,75.95
2018-04-29T04:38:35.869Z,74.94
2018-04-29T04:41:03.293Z,73.63
2018-04-29T04:43:30.713Z,72.27
2018-04-29T04:45:58.192Z,70.62
2018-04-29T04:48:25.528Z,69.35
2018-04-29T04:50:52.942Z,66.65
2018-04-29T04:53:20.335Z,66.52
2018-04-29T04:55:47.751Z,65.23
2018-04-29T04:58:15.162Z,61.88
2018-04-29T05:00:42.561Z,61.55
2018-04-29T05:03:09.976Z,61.54
2018-04-29T05:05:37.369Z,60.35
2018-04-29T05:08:04.776Z,59.34
2018-04-29T05:10:32.179Z,57.42
2018-04-29T05:12:59.584Z,56.08
2018-04-29T05:15:26.984Z,56.12
2018-04-29T05:17:54.489Z,51.28
2018-04-29T05:20:21.884Z,53.04
2018-04-29T05:22:49.298Z,52.55
2018-04-29T05:25:16.708Z,49.42
2018-04-29T05:27:44.111Z,50.01
2018-04-29T05:30:11.516Z,49.71
2018-04-29T05:32:38.932Z,51.13
2018-04-29T05:35:06.350Z,51.33
2018-04-29T05:37:33.760Z,50.88
2018-04-29T05:40:01.180Z,50.06
2018-04-29T05:42:28.572Z,48.11
2018-04-29T05:44:55.992Z,48.40
2018-04-29T05:47:23.384Z,47.39
2018-04-29T05:49:51.093Z,46.37
2018-04-29T05:52:18.460Z,44.88
2018-04-29T05:54:45.859Z,42.64
2018-04-29T05:57:13.629Z,43.95
2018-04-29T05:59:41.032Z,44.54
2018-04-29T06:02:08.432Z,43.74
2018-04-29T06:04:35.859Z,43.46
2018-04-29T06:07:03.248Z,42.97
2018-04-29T06:09:30.659Z,42.45
2018-04-29T06:11:58.068Z,40.59
2018-04-29T06:14:25.483Z,43.22
2018-04-29T06:16:52.887Z,43.63
2018-04-29T06:19:20.299Z,42.43
2018-04-29T06:21:47.691Z,42.05
2018-04-29T06:24:15.398Z,43.29
2018-04-29T06:26:42.799Z,43.23
2018-04-29T06:29:10.204Z,42.45
2018-04-29T06:31:37.622Z,41.01
2018-04-29T06:34:05.038Z,40.24
2018-04-29T06:36:32.436Z,39.38
2018-04-29T06:38:59.849Z,38.78
2018-04-29T06:41:27.279Z,37.73
2018-04-29T06:43:54.703Z,36.61
2018-04-29T06:46:22.115Z,37.17
2018-04-29T06:48:49.523Z,37.16
2018-04-29T06:51:16.932Z,37.07
2018-04-29T06:53:44.348Z,34.30
2018-04-29T06:56:11.739Z,34.86
2018-04-29T06:58:39.204Z,36.36
2018-04-29T07:01:06.936Z,36.27
2018-04-29T07:03:34.341Z,35.96
2018-04-29T07:06:01.741Z,35.53
2018-04-29T07:08:29.151Z,35.83
2018-04-29T07:10:56.556Z,36.68
2018-04-29T07:13:23.964Z,36.22
2018-04-29T07:15:51.364Z,36.45
2018-04-29T07:18:18.779Z,36.24
2018-04-29T07:20:46.200Z,37.49
2018-04-29T07:23:13.671Z,38.08
2018-04-29T07:25:41.074Z,38.32
2018-04-29T07:28:08.488Z,37.48
2018-04-29T07:30:35.892Z,36.71
2018-04-29T07:33:03.297Z,37.23
2018-04-29T07:35:30.711Z,37.12
2018-04-29T07:37:58.104Z,37.62
2018-04-29T07:40:25.520Z,37.17
2018-04-29T07:42:52.915Z,36.16
2018-04-29T07:45:20.327Z,35.58
2018-04-29T07:47:47.733Z,35.96
2018-04-29T07:50:15.156Z,35.42
2018-04-29T07:52:42.602Z,35.46
2018-04-29T07:55:09.957Z,35.61
2018-04-29T07:57:37.719Z,37.38
2018-04-29T08:00:05.111Z,38.16
2018-04-29T08:02:32.508Z,38.94
2018-04-29T08:04:59.919Z,39.92
2018-04-29T08:07:27.329Z,40.71
2018-04-29T08:09:54.719Z,40.65
2018-04-29T08:12:22.136Z,40.67
2018-04-29T08:14:49.528Z,40.87
2018-04-29T08:17:16.944Z,41.17
2018-04-29T08:19:44.343Z,41.61
2018-04-29T08:22:11.760Z,41.87
2018-04-29T08:24:39.167Z,42.40
2018-04-29T08:27:06.579Z,43.02
2018-04-29T08:29:34.197Z,43.74
2018-04-29T08:32:01.598Z,44.29
2018-04-29T08:34:28.999Z,44.87
2018-04-29T08:36:56.421Z,44.53
2018-04-29T08:39:23.824Z,44.81
2018-04-29T08:41:51.550Z,45.08
2018-04-29T08:44:18.887Z,45.53
2018-04-29T08:46:46.280Z,46.24
2018-04-29T08:49:13.691Z,46.49
2018-04-29T08:51:41.092Z,46.78
2018-04-29T08:54:08.525Z,45.58
2018-04-29T08:56:35.936Z,44.71
2018-04-29T08:59:03.334Z,44.52
2018-04-29T09:01:30.759Z,44.55
2018-04-29T09:03:58.242Z,44.90
2018-04-29T09:06:25.591Z,45.88
2018-04-29T09:08:52.987Z,46.16
2018-04-29T09:11:20.412Z,47.23
2018-04-29T09:13:47.814Z,47.81
2018-04-29T09:16:15.256Z,47.47
2018-04-29T09:18:42.652Z,48.05
2018-04-29T09:21:10.078Z,47.43
2018-04-29T09:23:37.531Z,44.44
2018-04-29T09:26:04.936Z,45.34
2018-04-29T09:28:32.342Z,44.20
2018-04-29T09:30:59.744Z,44.09
2018-04-29T09:33:27.159Z,42.90
2018-04-29T09:35:54.575Z,41.94
2018-04-29T09:38:21.991Z,42.72
2018-04-29T09:40:49.407Z,42.91
2018-04-29T09:43:16.816Z,43.74
2018-04-29T09:45:44.239Z,43.81
2018-04-29T09:48:11.632Z,43.74
2018-04-29T09:50:39.040Z,43.34
2018-04-29T09:53:06.498Z,43.07
2018-04-29T09:55:33.941Z,43.21
2018-04-29T09:58:01.356Z,42.77
2018-04-29T10:00:28.756Z,41.84
2018-04-29T10:03:01.758Z,41.83
2018-04-29T10:05:29.167Z,41.89
2018-04-29T10:07:56.568Z,40.63
2018-04-29T10:10:23.976Z,41.36
2018-04-29T10:12:51.380Z,38.91
2018-04-29T10:15:19.089Z,37.31
2018-04-29T10:17:46.487Z,37.42
2018-04-29T10:20:13.888Z,37.21
2018-04-29T10:22:41.547Z,37.67
2018-04-29T10:25:08.966Z,38.45
2018-04-29T10:27:36.462Z,38.70
2018-04-29T10:30:03.884Z,37.93
2018-04-29T10:32:31.304Z,36.97
2018-04-29T10:34:58.699Z,38.38
2018-04-29T10:37:26.124Z,37.27
2018-04-29T10:39:53.531Z,37.28
2018-04-29T10:42:20.931Z,38.13
2018-04-29T10:44:48.632Z,39.57
2018-04-29T10:47:16.036Z,39.33
2018-04-29T10:49:43.467Z,39.37
2018-04-29T10:52:11.148Z,39.60
2018-04-29T10:54:38.552Z,40.36
2018-04-29T10:57:05.950Z,40.69
2018-04-29T10:59:33.360Z,41.30
2018-04-29T11:02:00.779Z,41.14
2018-04-29T11:04:28.195Z,41.96
2018-04-29T11:06:55.615Z,42.86
2018-04-29T11:09:23.057Z,41.92
2018-04-29T11:11:50.851Z,41.81
2018-04-29T11:14:18.215Z,42.38
2018-04-29T11:16:45.632Z,43.43
2018-04-29T11:19:13.040Z,43.36
2018-04-29T11:21:40.446Z,43.15
2018-04-29T11:24:07.863Z,43.69
2018-04-29T11:26:35.274Z,43.67
2018-04-29T11:29:02.669Z,44.14
2018-04-29T11:31:30.088Z,43.19
2018-04-29T11:33:57.631Z,43.07
2018-04-29T11:36:25.796Z,43.29
2018-04-29T11:38:53.216Z,43.38
2018-04-29T11:41:20.636Z,43.73
2018-04-29T11:43:48.352Z,43.42
2018-04-29T11:46:15.764Z,43.54
2018-04-29T11:48:43.168Z,42.72
2018-04-29T11:51:10.584Z,42.27
2018-04-29T11:53:38.004Z,43.22
2018-04-29T11:56:05.421Z,42.87
2018-04-29T11:58:32.859Z,43.52
2018-04-29T12:01:00.265Z,42.46
2018-04-29T12:03:27.698Z,42.72
2018-04-29T12:05:55.362Z,42.91
2018-04-29T12:08:23.129Z,44.17
2018-04-29T12:10:50.668Z,43.96
2018-04-29T12:13:18.057Z,43.83
2018-04-29T12:15:45.452Z,44.11
2018-04-29T12:18:12.859Z,43.28
2018-04-29T12:20:40.264Z,42.65
2018-04-29T12:23:07.680Z,42.87
2018-04-29T12:25:35.369Z,42.98
2018-04-29T12:28:03.080Z,43.20
2018-04-29T12:30:30.515Z,43.15
2018-04-29T12:32:57.939Z,43.20
2018-04-29T12:35:25.697Z,42.59
2018-04-29T12:37:53.917Z,43.32
2018-04-29T12:40:21.350Z,43.38
2018-04-29T12:42:48.755Z,43.00
2018-04-29T12:45:17.660Z,43.33
2018-04-29T12:47:45.072Z,43.41
2018-04-29T12:50:12.484Z,42.27
2018-04-29T12:52:39.903Z,42.39
2018-04-29T12:55:08.144Z,42.53
2018-04-29T12:57:35.896Z,42.38
2018-04-29T13:00:03.319Z,42.15
2018-04-29T13:02:30.724Z,41.77
2018-04-29T13:04:58.128Z,42.05
2018-04-29T13:07:25.528Z,42.15
2018-04-29T13:09:52.948Z,41.04
2018-04-29T13:12:20.352Z,41.74
2018-04-29T13:14:47.765Z,41.74
2018-04-29T13:17:15.236Z,42.01
2018-04-29T13:19:42.687Z,43.25
2018-04-29T13:22:10.439Z,43.75
2018-04-29T13:24:38.104Z,43.00
2018-04-29T13:27:05.533Z,42.86
2018-04-29T13:29:32.938Z,43.77
2018-04-29T13:32:01.013Z,44.88
2018-04-29T13:34:28.467Z,46.11
2018-04-29T13:36:57.560Z,46.83
2018-04-29T13:39:24.994Z,47.00
2018-04-29T13:41:52.403Z,46.15
2018-04-29T13:44:19.849Z,45.97
2018-04-29T13:46:47.270Z,45.81
2018-04-29T13:49:14.698Z,45.65
2018-04-29T13:51:42.120Z,46.03
2018-04-29T13:54:09.549Z,47.02
2018-04-29T13:56:37.060Z,46.39
2018-04-29T13:59:04.381Z,46.49
2018-04-29T14:01:31.792Z,48.21
2018-04-29T14:03:59.646Z,48.85
2018-04-29T14:06:27.044Z,49.46
2018-04-29T14:08:54.448Z,50.07
2018-04-29T14:11:22.157Z,50.73
2018-04-29T14:13:49.564Z,51.27
2018-04-29T14:16:16.972Z,50.93
2018-04-29T14:18:44.368Z,51.56
2018-04-29T14:21:12.097Z,51.68
2018-04-29T14:23:40.406Z,52.79
2018-04-29T14:26:07.952Z,51.87
2018-04-29T14:28:35.404Z,52.49
2018-04-29T14:31:02.912Z,52.95
2018-04-29T14:33:30.331Z,52.71
2018-04-29T14:35:57.752Z,53.91
2018-04-29T14:38:25.172Z,54.41
2018-04-29T14:40:52.761Z,54.71
2018-04-29T14:43:20.464Z,54.29
2018-04-29T14:45:47.899Z,54.03
2018-04-29T14:48:15.316Z,54.92
2018-04-29T14:50:42.726Z,53.94
2018-04-29T14:53:10.143Z,53.60
2018-04-29T14:55:37.564Z,54.57
2018-04-29T14:58:05.305Z,54.28
2018-04-29T15:00:32.699Z,53.45
2018-04-29T15:03:00.101Z,53.89
2018-04-29T15:05:27.794Z,54.54
2018-04-29T15:07:55.292Z,53.96
2018-04-29T15:10:23.019Z,54.55
2018-04-29T15:12:50.455Z,53.89
2018-04-29T15:15:19.111Z,54.05
2018-04-29T15:17:46.524Z,53.79
2018-04-29T15:20:13.933Z,54.33
2018-04-29T15:22:41.348Z,54.26
2018-04-29T15:25:08.759Z,54.32
2018-04-29T15:27:36.175Z,54.08
2018-04-29T15:30:03.584Z,53.83
2018-04-29T15:32:30.993Z,53.60
2018-04-29T15:34:58.436Z,54.92
2018-04-29T15:37:25.841Z,56.25
2018-04-29T15:39:53.257Z,55.87
2018-04-29T15:42:20.705Z,56.69
2018-04-29T15:44:48.140Z,55.93
2018-04-29T15:47:15.559Z,56.47
2018-04-29T15:49:42.995Z,56.18
2018-04-29T15:52:10.422Z,55.72
2018-04-29T15:54:38.116Z,55.55
2018-04-29T15:57:05.536Z,55.79
2018-04-29T15:59:32.939Z,54.79
2018-04-29T16:02:00.361Z,54.98
2018-04-29T16:04:27.765Z,54.86
2018-04-29T16:06:55.169Z,54.44
2018-04-29T16:09:22.631Z,55.10
2018-04-29T16:11:50.087Z,55.70
2018-04-29T16:14:19.601Z,56.27
2018-04-29T16:16:48.860Z,56.54
2018-04-29T16:19:16.385Z,56.53
2018-04-29T16:21:45.852Z,56.73
2018-04-29T16:24:13.830Z,56.58
2018-04-29T16:26:41.301Z,56.21
2018-04-29T16:29:10.187Z,56.88
2018-04-29T16:31:38.038Z,56.36
2018-04-29T16:34:07.377Z,56.76
2018-04-29T16:36:35.360Z,56.64
2018-04-29T16:39:03.619Z,56.90
2018-04-29T16:41:31.255Z,57.25
2018-04-29T16:43:58.949Z,57.44
2018-04-29T16:46:26.930Z,57.59
2018-04-29T16:48:55.163Z,57.14
2018-04-29T16:51:22.975Z,56.81
2018-04-29T16:53:50.969Z,56.82
2018-04-29T16:56:18.380Z,57.13
2018-04-29T16:58:45.795Z,57.05
2018-04-29T17:01:13.638Z,57.29
2018-04-29T17:03:40.973Z,57.01
2018-04-29T17:06:08.390Z,57.21
2018-04-29T17:08:35.956Z,57.18
2018-04-29T17:11:03.353Z,57.40
2018-04-29T17:13:30.773Z,57.33
2018-04-29T17:15:58.707Z,57.05
2018-04-29T17:18:28.303Z,57.28
2018-04-29T17:20:56.241Z,57.60
2018-04-29T17:23:23.864Z,57.25
2018-04-29T17:25:51.505Z,57.61
2018-04-29T17:28:22.853Z,57.74
2018-04-29T17:30:50.209Z,57.92
2018-04-29T17:33:22.647Z,58.22
2018-04-29T17:35:50.347Z,57.70
2018-04-29T17:38:19.296Z,57.71
2018-04-29T17:40:47.880Z,57.84
2018-04-29T17:43:16.527Z,57.88
2018-04-29T17:45:44.555Z,58.41
2018-04-29T17:48:13.604Z,58.84
2018-04-29T17:50:41.225Z,58.97
2018-04-29T17:53:09.152Z,59.29
2018-04-29T17:55:37.010Z,59.04
2018-04-29T17:58:04.700Z,59.08
2018-04-29T18:00:32.112Z,59.36
2018-04-29T18:03:01.215Z,59.35
2018-04-29T18:05:28.729Z,59.66
2018-04-29T18:07:56.472Z,59.69
2018-04-29T18:10:24.801Z,59.75
2018-04-29T18:12:52.207Z,59.87
2018-04-29T18:15:20.254Z,59.88
2018-04-29T18:17:47.863Z,59.82
2018-04-29T18:20:15.438Z,60.12
2018-04-29T18:22:44.190Z,60.08
2018-04-29T18:25:11.896Z,60.10
2018-04-29T18:27:41.260Z,60.46
2018-04-29T18:30:08.763Z,60.37
2018-04-29T18:32:37.688Z,60.50
2018-04-29T18:35:05.873Z,60.86
2018-04-29T18:37:33.946Z,60.91
2018-04-29T18:40:03.163Z,60.88
2018-04-29T18:42:31.091Z,61.21
2018-04-29T18:44:58.752Z,61.22
2018-04-29T18:47:27.260Z,61.49
2018-04-29T18:49:55.266Z,61.87
2018-04-29T18:52:22.753Z,61.99
2018-04-29T18:54:50.297Z,61.93
2018-04-29T18:57:18.699Z,62.32
2018-04-29T18:59:46.236Z,62.63
2018-04-29T19:02:14.571Z,62.93
2018-04-29T19:04:42.894Z,62.86
2018-04-29T19:07:10.315Z,63.24
2018-04-29T19:09:37.745Z,63.24
2018-04-29T19:12:05.139Z,63.63
2018-04-29T19:14:32.548Z,63.79
2018-04-29T19:16:59.994Z,63.53
2018-04-29T19:19:27.440Z,63.55
2018-04-29T19:21:55.133Z,63.79
2018-04-29T19:24:23.250Z,64.11
2018-04-29T19:26:51.983Z,64.05
2018-04-29T19:29:20.363Z,64.39
2018-04-29T19:31:48.719Z,64.91
2018-04-29T19:34:16.428Z,65.04
2018-04-29T19:36:44.099Z,65.74
2018-04-29T19:39:13.058Z,65.55
2018-04-29T19:41:40.478Z,65.12
2018-04-29T19:44:07.880Z,65.39
2018-04-29T19:46:35.436Z,65.23
2018-04-29T19:49:02.873Z,65.66
2018-04-29T19:51:30.277Z,65.84
2018-04-29T19:53:57.688Z,66.16
2018-04-29T19:56:26.088Z,66.78
2018-04-29T19:58:53.492Z,67.09
2018-04-29T20:01:20.912Z,67.14
2018-04-29T20:03:48.328Z,67.08
2018-04-29T20:06:15.743Z,67.34
2018-04-29T20:08:43.169Z,67.34
2018-04-29T20:11:10.568Z,67.55
2018-04-29T20:13:37.980Z,68.46
2018-04-29T20:16:05.548Z,68.82
2018-04-29T20:18:33.134Z,68.65
2018-04-29T20:21:00.702Z,69.14
2018-04-29T20:23:28.121Z,69.12
2018-04-29T20:25:55.521Z,68.68
2018-04-29T20:28:22.929Z,68.94
2018-04-29T20:30:50.354Z,68.48
2018-04-29T20:33:17.743Z,68.03
2018-04-29T20:35:45.191Z,67.89
2018-04-29T20:38:12.596Z,68.17
2018-04-29T20:40:39.995Z,68.00
2018-04-29T20:43:07.411Z,67.84
2018-04-29T20:45:34.826Z,67.78
2018-04-29T20:48:02.256Z,67.76
2018-04-29T20:50:29.849Z,67.57
2018-04-29T20:52:57.244Z,67.55
2018-04-29T20:55:24.670Z,67.45
2018-04-29T20:57:52.079Z,67.33
2018-04-29T21:00:19.492Z,67.71
2018-04-29T21:02:47.388Z,67.62
2018-04-29T21:05:14.823Z,67.51
2018-04-29T21:07:42.303Z,67.63
2018-04-29T21:10:09.824Z,67.76
2018-04-29T21:12:37.261Z,68.05
2018-04-29T21:15:04.684Z,68.21
2018-04-29T21:17:32.158Z,68.21
2018-04-29T21:19:59.629Z,68.48
2018-04-29T21:22:27.132Z,68.90
2018-04-29T21:24:54.465Z,68.76
2018-04-29T21:27:21.882Z,69.06
2018-04-29T21:29:49.291Z,69.26
2018-04-29T21:32:16.716Z,69.41
2018-04-29T21:34:44.132Z,69.73
2018-04-29T21:37:11.582Z,70.03
2018-04-29T21:39:39.003Z,71.70
2018-04-29T21:42:06.417Z,70.83
2018-04-29T21:44:33.827Z,71.04
2018-04-29T21:47:01.265Z,70.75
2018-04-29T21:49:28.685Z,70.59
2018-04-29T21:51:56.096Z,70.39
2018-04-29T21:54:23.528Z,70.07
2018-04-29T21:56:50.937Z,70.03
2018-04-29T21:59:18.369Z,70.14
2018-04-29T22:01:45.772Z,70.62
2018-04-29T22:04:13.236Z,71.25
2018-04-29T22:06:40.612Z,71.12
2018-04-29T22:09:08.016Z,71.91
2018-04-29T22:11:35.456Z,71.79
2018-04-29T22:14:02.876Z,71.23
2018-04-29T22:16:30.280Z,71.12
2018-04-29T22:18:57.677Z,70.61
2018-04-29T22:21:25.090Z,70.43
2018-04-29T22:23:52.510Z,70.33
2018-04-29T22:26:19.972Z,69.95
2018-04-29T22:28:47.393Z,69.55
2018-04-29T22:31:14.812Z,69.49
2018-04-29T22:33:42.213Z,69.35
2018-04-29T22:36:09.628Z,69.10
2018-04-29T22:38:37.036Z,68.98
2018-04-29T22:41:04.460Z,68.91
2018-04-29T22:43:31.875Z,68.89
2018-04-29T22:45:59.293Z,68.80
2018-04-29T22:48:26.716Z,68.90
2018-04-29T22:50:54.124Z,68.80
2018-04-29T22:53:21.544Z,68.84
2018-04-29T22:55:48.953Z,68.89
2018-04-29T22:58:16.369Z,68.77
2018-04-29T23:00:43.768Z,68.78
2018-04-29T23:03:11.189Z,68.86
2018-04-29T23:05:38.936Z,68.91
2018-04-29T23:08:06.341Z,69.69
2018-04-29T23:10:33.761Z,69.56
2018-04-29T23:13:01.176Z,69.26
2018-04-29T23:15:28.576Z,69.32
2018-04-29T23:17:56.234Z,69.40
2018-04-29T23:20:23.640Z,69.51
2018-04-29T23:22:51.050Z,69.35
2018-04-29T23:25:18.789Z,69.26
2018-04-29T23:27:46.200Z,69.33
2018-04-29T23:30:13.603Z,69.21
2018-04-29T23:32:41.020Z,69.26
2018-04-29T23:35:08.432Z,69.13
2018-04-29T23:37:35.853Z,69.12
2018-04-29T23:40:03.284Z,68.90
2018-04-29T23:42:30.688Z,68.81
2018-04-29T23:44:58.109Z,68.65
2018-04-29T23:47:25.579Z,68.53
2018-04-29T23:49:52.967Z,68.41
2018-04-29T23:52:20.384Z,68.16
2018-04-29T23:54:47.791Z,67.94
2018-04-29T23:57:15.225Z,67.81
2018-04-29T23:59:42.624Z,67.55
